sensor_id;sensor_type;location;lat;lon;timestamp;P1;durP1;ratioP1;P2;durP2;ratioP2
33786;SDS011;29742;51.540;9.358;2022-10-16T00:04:00;0.57;;;0.50;;
33786;SDS011;29742;51.540;9.358;2022-10-16T00:09:01;0.75;;;0.68;;
33786;SDS011;29742;51.540;9.358;2022-10-16T00:14:03;0.95;;;0.50;;
33786;SDS011;29742;51.540;9.358;2022-10-16T00:19:05;3.38;;;1.25;;
33786;SDS011;29742;51.540;9.358;2022-10-16T00:24:06;1.48;;;0.47;;
33786;SDS011;29742;51.540;9.358;2022-10-16T00:29:08;1.02;;;0.40;;
33786;SDS011;29742;51.540;9.358;2022-10-16T00:34:09;1.23;;;0.50;;
33786;SDS011;29742;51.540;9.358;2022-10-16T00:39:10;0.70;;;0.60;;
33786;SDS011;29742;51.540;9.358;2022-10-16T00:49:30;2.10;;;0.65;;
33786;SDS011;29742;51.540;9.358;2022-10-16T00:54:32;0.40;;;0.40;;
33786;SDS011;29742;51.540;9.358;2022-10-16T00:59:35;0.70;;;0.60;;
33786;SDS011;29742;51.540;9.358;2022-10-16T01:04:44;0.98;;;0.50;;
33786;SDS011;29742;51.540;9.358;2022-10-16T01:14:57;1.35;;;0.60;;
33786;SDS011;29742;51.540;9.358;2022-10-16T01:20:18;0.50;;;0.50;;
33786;SDS011;29742;51.540;9.358;2022-10-16T01:25:59;0.43;;;0.43;;
33786;SDS011;29742;51.540;9.358;2022-10-16T01:30:48;1.40;;;0.77;;
33786;SDS011;29742;51.540;9.358;2022-10-16T01:35:54;0.40;;;0.40;;
33786;SDS011;29742;51.540;9.358;2022-10-16T01:41:00;0.70;;;0.40;;
33786;SDS011;29742;51.540;9.358;2022-10-16T01:46:02;0.95;;;0.60;;
33786;SDS011;29742;51.540;9.358;2022-10-16T01:51:08;0.50;;;0.50;;
33786;SDS011;29742;51.540;9.358;2022-10-16T01:56:10;0.30;;;0.30;;
33786;SDS011;29742;51.540;9.358;2022-10-16T02:01:13;0.52;;;0.50;;
33786;SDS011;29742;51.540;9.358;2022-10-16T02:06:15;0.75;;;0.50;;
33786;SDS011;29742;51.540;9.358;2022-10-16T02:11:16;0.30;;;0.30;;
33786;SDS011;29742;51.540;9.358;2022-10-16T02:16:17;0.65;;;0.30;;
33786;SDS011;29742;51.540;9.358;2022-10-16T02:21:19;0.70;;;0.50;;
33786;SDS011;29742;51.540;9.358;2022-10-16T02:32:00;1.25;;;0.45;;
33786;SDS011;29742;51.540;9.358;2022-10-16T02:37:02;0.40;;;0.40;;
33786;SDS011;29742;51.540;9.358;2022-10-16T02:42:06;0.50;;;0.45;;
33786;SDS011;29742;51.540;9.358;2022-10-16T02:47:10;1.13;;;0.40;;
33786;SDS011;29742;51.540;9.358;2022-10-16T02:52:11;0.77;;;0.40;;
33786;SDS011;29742;51.540;9.358;2022-10-16T02:57:12;0.35;;;0.30;;
33786;SDS011;29742;51.540;9.358;2022-10-16T03:02:13;1.17;;;0.50;;
33786;SDS011;29742;51.540;9.358;2022-10-16T03:07:14;0.32;;;0.30;;
33786;SDS011;29742;51.540;9.358;2022-10-16T03:12:16;0.60;;;0.50;;
33786;SDS011;29742;51.540;9.358;2022-10-16T03:17:16;0.60;;;0.50;;
33786;SDS011;29742;51.540;9.358;2022-10-16T03:22:17;0.40;;;0.40;;
33786;SDS011;29742;51.540;9.358;2022-10-16T03:27:18;0.82;;;0.80;;
33786;SDS011;29742;51.540;9.358;2022-10-16T03:32:19;1.52;;;0.40;;
33786;SDS011;29742;51.540;9.358;2022-10-16T03:37:21;0.30;;;0.30;;
33786;SDS011;29742;51.540;9.358;2022-10-16T03:42:22;0.52;;;0.35;;
33786;SDS011;29742;51.540;9.358;2022-10-16T03:47:24;0.63;;;0.50;;
33786;SDS011;29742;51.540;9.358;2022-10-16T03:52:25;1.20;;;0.60;;
33786;SDS011;29742;51.540;9.358;2022-10-16T03:57:26;0.30;;;0.30;;
33786;SDS011;29742;51.540;9.358;2022-10-16T04:02:27;1.60;;;1.00;;
33786;SDS011;29742;51.540;9.358;2022-10-16T04:07:28;0.30;;;0.30;;
33786;SDS011;29742;51.540;9.358;2022-10-16T04:12:29;0.50;;;0.32;;
33786;SDS011;29742;51.540;9.358;2022-10-16T04:17:30;2.28;;;0.32;;
33786;SDS011;29742;51.540;9.358;2022-10-16T04:22:31;0.52;;;0.30;;
33786;SDS011;29742;51.540;9.358;2022-10-16T04:27:32;0.63;;;0.40;;
33786;SDS011;29742;51.540;9.358;2022-10-16T04:32:33;0.52;;;0.50;;
33786;SDS011;29742;51.540;9.358;2022-10-16T04:37:34;1.20;;;0.43;;
33786;SDS011;29742;51.540;9.358;2022-10-16T04:42:35;0.20;;;0.20;;
33786;SDS011;29742;51.540;9.358;2022-10-16T04:47:36;0.65;;;0.60;;
33786;SDS011;29742;51.540;9.358;2022-10-16T04:52:37;0.50;;;0.50;;
33786;SDS011;29742;51.540;9.358;2022-10-16T04:57:38;0.93;;;0.60;;
33786;SDS011;29742;51.540;9.358;2022-10-16T05:02:39;0.32;;;0.32;;
33786;SDS011;29742;51.540;9.358;2022-10-16T05:07:40;1.75;;;0.43;;
33786;SDS011;29742;51.540;9.358;2022-10-16T05:12:41;1.48;;;0.70;;
33786;SDS011;29742;51.540;9.358;2022-10-16T05:17:42;1.27;;;0.63;;
33786;SDS011;29742;51.540;9.358;2022-10-16T05:22:43;0.88;;;0.40;;
33786;SDS011;29742;51.540;9.358;2022-10-16T05:27:47;1.50;;;0.68;;
33786;SDS011;29742;51.540;9.358;2022-10-16T05:32:48;0.80;;;0.43;;
33786;SDS011;29742;51.540;9.358;2022-10-16T05:37:50;0.40;;;0.30;;
33786;SDS011;29742;51.540;9.358;2022-10-16T05:42:54;0.73;;;0.50;;
33786;SDS011;29742;51.540;9.358;2022-10-16T05:47:55;0.63;;;0.40;;
33786;SDS011;29742;51.540;9.358;2022-10-16T05:52:56;1.23;;;0.60;;
33786;SDS011;29742;51.540;9.358;2022-10-16T05:57:57;0.80;;;0.55;;
33786;SDS011;29742;51.540;9.358;2022-10-16T06:02:58;2.75;;;1.75;;
33786;SDS011;29742;51.540;9.358;2022-10-16T06:07:59;0.65;;;0.40;;
33786;SDS011;29742;51.540;9.358;2022-10-16T06:13:00;1.13;;;0.50;;
33786;SDS011;29742;51.540;9.358;2022-10-16T06:18:01;1.08;;;0.40;;
33786;SDS011;29742;51.540;9.358;2022-10-16T06:23:02;0.85;;;0.38;;
33786;SDS011;29742;51.540;9.358;2022-10-16T06:28:04;0.80;;;0.40;;
33786;SDS011;29742;51.540;9.358;2022-10-16T06:33:05;1.30;;;0.50;;
33786;SDS011;29742;51.540;9.358;2022-10-16T06:38:05;1.00;;;0.50;;
33786;SDS011;29742;51.540;9.358;2022-10-16T06:43:06;0.55;;;0.50;;
33786;SDS011;29742;51.540;9.358;2022-10-16T06:48:07;0.70;;;0.52;;
33786;SDS011;29742;51.540;9.358;2022-10-16T06:53:08;0.73;;;0.50;;
33786;SDS011;29742;51.540;9.358;2022-10-16T06:58:09;0.85;;;0.45;;
33786;SDS011;29742;51.540;9.358;2022-10-16T07:03:10;1.05;;;0.50;;
33786;SDS011;29742;51.540;9.358;2022-10-16T07:08:11;0.55;;;0.40;;
33786;SDS011;29742;51.540;9.358;2022-10-16T07:13:12;0.47;;;0.47;;
33786;SDS011;29742;51.540;9.358;2022-10-16T07:18:14;0.52;;;0.30;;
33786;SDS011;29742;51.540;9.358;2022-10-16T07:23:15;0.65;;;0.43;;
33786;SDS011;29742;51.540;9.358;2022-10-16T07:28:16;2.30;;;0.43;;
33786;SDS011;29742;51.540;9.358;2022-10-16T07:33:17;0.73;;;0.40;;
33786;SDS011;29742;51.540;9.358;2022-10-16T07:38:18;1.67;;;0.30;;
33786;SDS011;29742;51.540;9.358;2022-10-16T07:43:19;0.95;;;0.50;;
33786;SDS011;29742;51.540;9.358;2022-10-16T07:48:20;1.48;;;0.73;;
33786;SDS011;29742;51.540;9.358;2022-10-16T07:53:21;0.65;;;0.30;;
33786;SDS011;29742;51.540;9.358;2022-10-16T07:58:22;8.20;;;1.40;;
33786;SDS011;29742;51.540;9.358;2022-10-16T08:03:24;18.67;;;2.03;;
33786;SDS011;29742;51.540;9.358;2022-10-16T08:08:25;7.28;;;1.40;;
33786;SDS011;29742;51.540;9.358;2022-10-16T08:13:26;4.05;;;1.00;;
33786;SDS011;29742;51.540;9.358;2022-10-16T08:18:27;6.43;;;0.95;;
33786;SDS011;29742;51.540;9.358;2022-10-16T08:23:28;2.97;;;0.80;;
33786;SDS011;29742;51.540;9.358;2022-10-16T08:28:29;9.25;;;1.00;;
33786;SDS011;29742;51.540;9.358;2022-10-16T08:33:30;3.55;;;0.80;;
33786;SDS011;29742;51.540;9.358;2022-10-16T08:38:31;4.35;;;0.70;;
33786;SDS011;29742;51.540;9.358;2022-10-16T08:44:16;4.68;;;0.73;;
33786;SDS011;29742;51.540;9.358;2022-10-16T08:48:57;2.40;;;0.82;;
33786;SDS011;29742;51.540;9.358;2022-10-16T08:54:01;1.95;;;0.55;;
33786;SDS011;29742;51.540;9.358;2022-10-16T08:59:03;3.20;;;0.60;;
33786;SDS011;29742;51.540;9.358;2022-10-16T09:19:44;10.10;;;1.40;;
33786;SDS011;29742;51.540;9.358;2022-10-16T09:24:46;13.20;;;2.45;;
33786;SDS011;29742;51.540;9.358;2022-10-16T09:29:47;5.65;;;1.20;;
33786;SDS011;29742;51.540;9.358;2022-10-16T09:34:49;3.58;;;1.10;;
33786;SDS011;29742;51.540;9.358;2022-10-16T09:39:52;8.23;;;0.98;;
33786;SDS011;29742;51.540;9.358;2022-10-16T09:44:53;4.57;;;0.95;;
33786;SDS011;29742;51.540;9.358;2022-10-16T09:54:57;4.95;;;1.02;;
33786;SDS011;29742;51.540;9.358;2022-10-16T09:59:58;10.60;;;1.20;;
33786;SDS011;29742;51.540;9.358;2022-10-16T10:04:59;3.13;;;0.82;;
33786;SDS011;29742;51.540;9.358;2022-10-16T10:10:01;13.70;;;2.45;;
33786;SDS011;29742;51.540;9.358;2022-10-16T10:15:13;8.90;;;1.80;;
33786;SDS011;29742;51.540;9.358;2022-10-16T10:25:25;9.75;;;1.92;;
33786;SDS011;29742;51.540;9.358;2022-10-16T10:30:36;2.92;;;0.90;;
33786;SDS011;29742;51.540;9.358;2022-10-16T10:35:46;4.15;;;0.98;;
33786;SDS011;29742;51.540;9.358;2022-10-16T10:46:13;5.10;;;1.38;;
33786;SDS011;29742;51.540;9.358;2022-10-16T10:51:19;4.32;;;1.35;;
33786;SDS011;29742;51.540;9.358;2022-10-16T10:56:41;9.25;;;2.42;;
33786;SDS011;29742;51.540;9.358;2022-10-16T11:02:04;7.75;;;2.17;;
33786;SDS011;29742;51.540;9.358;2022-10-16T11:07:18;7.55;;;2.20;;
33786;SDS011;29742;51.540;9.358;2022-10-16T11:12:21;12.40;;;2.28;;
33786;SDS011;29742;51.540;9.358;2022-10-16T11:17:28;10.45;;;2.33;;
33786;SDS011;29742;51.540;9.358;2022-10-16T11:22:34;9.27;;;2.15;;
33786;SDS011;29742;51.540;9.358;2022-10-16T11:27:45;7.93;;;1.80;;
33786;SDS011;29742;51.540;9.358;2022-10-16T11:37:54;10.05;;;2.55;;
33786;SDS011;29742;51.540;9.358;2022-10-16T11:43:13;6.95;;;2.20;;
33786;SDS011;29742;51.540;9.358;2022-10-16T11:58:59;5.47;;;1.70;;
33786;SDS011;29742;51.540;9.358;2022-10-16T12:09:02;5.35;;;1.60;;
33786;SDS011;29742;51.540;9.358;2022-10-16T12:19:15;5.57;;;1.58;;
33786;SDS011;29742;51.540;9.358;2022-10-16T12:24:20;4.85;;;1.63;;
33786;SDS011;29742;51.540;9.358;2022-10-16T12:29:23;6.72;;;1.30;;
33786;SDS011;29742;51.540;9.358;2022-10-16T12:34:44;7.13;;;1.33;;
33786;SDS011;29742;51.540;9.358;2022-10-16T12:39:45;3.08;;;1.40;;
33786;SDS011;29742;51.540;9.358;2022-10-16T12:44:47;5.75;;;1.40;;
33786;SDS011;29742;51.540;9.358;2022-10-16T12:49:52;4.10;;;1.42;;
33786;SDS011;29742;51.540;9.358;2022-10-16T12:54:55;3.47;;;1.52;;
33786;SDS011;29742;51.540;9.358;2022-10-16T13:10:42;2.08;;;1.02;;
33786;SDS011;29742;51.540;9.358;2022-10-16T13:26:13;7.75;;;1.00;;
33786;SDS011;29742;51.540;9.358;2022-10-16T13:31:17;6.75;;;1.10;;
33786;SDS011;29742;51.540;9.358;2022-10-16T13:36:23;6.45;;;1.25;;
33786;SDS011;29742;51.540;9.358;2022-10-16T13:41:24;2.20;;;0.98;;
33786;SDS011;29742;51.540;9.358;2022-10-16T13:46:25;4.80;;;1.38;;
33786;SDS011;29742;51.540;9.358;2022-10-16T13:51:27;4.03;;;1.25;;
33786;SDS011;29742;51.540;9.358;2022-10-16T13:56:29;4.70;;;1.27;;
33786;SDS011;29742;51.540;9.358;2022-10-16T14:01:34;4.45;;;1.40;;
33786;SDS011;29742;51.540;9.358;2022-10-16T14:06:36;5.75;;;1.00;;
33786;SDS011;29742;51.540;9.358;2022-10-16T14:11:42;2.58;;;0.90;;
33786;SDS011;29742;51.540;9.358;2022-10-16T14:16:45;1.83;;;0.82;;
33786;SDS011;29742;51.540;9.358;2022-10-16T14:21:46;2.90;;;1.15;;
33786;SDS011;29742;51.540;9.358;2022-10-16T14:26:47;5.05;;;1.00;;
33786;SDS011;29742;51.540;9.358;2022-10-16T14:36:56;3.50;;;1.10;;
33786;SDS011;29742;51.540;9.358;2022-10-16T14:41:59;2.05;;;0.75;;
33786;SDS011;29742;51.540;9.358;2022-10-16T14:47:11;4.28;;;1.20;;
33786;SDS011;29742;51.540;9.358;2022-10-16T14:52:14;2.50;;;0.80;;
33786;SDS011;29742;51.540;9.358;2022-10-16T14:57:18;4.15;;;1.00;;
33786;SDS011;29742;51.540;9.358;2022-10-16T15:07:22;2.42;;;0.68;;
33786;SDS011;29742;51.540;9.358;2022-10-16T15:12:23;2.75;;;1.02;;
33786;SDS011;29742;51.540;9.358;2022-10-16T15:17:24;5.00;;;1.30;;
33786;SDS011;29742;51.540;9.358;2022-10-16T15:22:25;2.63;;;1.17;;
33786;SDS011;29742;51.540;9.358;2022-10-16T15:27:26;4.57;;;1.45;;
33786;SDS011;29742;51.540;9.358;2022-10-16T15:32:27;6.55;;;1.70;;
33786;SDS011;29742;51.540;9.358;2022-10-16T15:37:28;2.83;;;1.30;;
33786;SDS011;29742;51.540;9.358;2022-10-16T15:42:29;2.25;;;1.15;;
33786;SDS011;29742;51.540;9.358;2022-10-16T15:47:30;5.50;;;1.30;;
33786;SDS011;29742;51.540;9.358;2022-10-16T15:52:31;7.50;;;1.55;;
33786;SDS011;29742;51.540;9.358;2022-10-16T15:57:32;2.17;;;1.20;;
33786;SDS011;29742;51.540;9.358;2022-10-16T16:02:33;4.80;;;1.52;;
33786;SDS011;29742;51.540;9.358;2022-10-16T16:07:35;4.13;;;1.73;;
33786;SDS011;29742;51.540;9.358;2022-10-16T16:12:36;4.95;;;2.10;;
33786;SDS011;29742;51.540;9.358;2022-10-16T16:17:37;6.03;;;1.70;;
33786;SDS011;29742;51.540;9.358;2022-10-16T16:22:38;7.53;;;1.90;;
33786;SDS011;29742;51.540;9.358;2022-10-16T16:27:40;6.70;;;1.80;;
33786;SDS011;29742;51.540;9.358;2022-10-16T16:32:40;4.15;;;1.65;;
33786;SDS011;29742;51.540;9.358;2022-10-16T16:37:42;5.75;;;2.10;;
33786;SDS011;29742;51.540;9.358;2022-10-16T16:42:43;5.18;;;1.80;;
33786;SDS011;29742;51.540;9.358;2022-10-16T16:47:44;4.55;;;1.75;;
33786;SDS011;29742;51.540;9.358;2022-10-16T16:52:45;7.70;;;1.92;;
33786;SDS011;29742;51.540;9.358;2022-10-16T16:57:47;5.18;;;1.90;;
33786;SDS011;29742;51.540;9.358;2022-10-16T17:02:49;3.08;;;1.60;;
33786;SDS011;29742;51.540;9.358;2022-10-16T17:07:50;4.80;;;1.75;;
33786;SDS011;29742;51.540;9.358;2022-10-16T17:12:51;2.65;;;1.10;;
33786;SDS011;29742;51.540;9.358;2022-10-16T17:17:52;3.90;;;1.30;;
33786;SDS011;29742;51.540;9.358;2022-10-16T17:22:53;2.70;;;1.58;;
33786;SDS011;29742;51.540;9.358;2022-10-16T17:27:54;3.28;;;1.23;;
33786;SDS011;29742;51.540;9.358;2022-10-16T17:32:55;5.30;;;1.27;;
33786;SDS011;29742;51.540;9.358;2022-10-16T17:37:55;6.32;;;1.75;;
33786;SDS011;29742;51.540;9.358;2022-10-16T17:42:56;4.05;;;1.20;;
33786;SDS011;29742;51.540;9.358;2022-10-16T17:47:57;2.20;;;1.20;;
33786;SDS011;29742;51.540;9.358;2022-10-16T17:52:59;3.33;;;1.50;;
33786;SDS011;29742;51.540;9.358;2022-10-16T17:57:59;4.15;;;1.60;;
33786;SDS011;29742;51.540;9.358;2022-10-16T18:03:00;4.85;;;1.67;;
33786;SDS011;29742;51.540;9.358;2022-10-16T18:08:01;3.70;;;1.10;;
33786;SDS011;29742;51.540;9.358;2022-10-16T18:13:02;5.03;;;1.30;;
33786;SDS011;29742;51.540;9.358;2022-10-16T18:18:03;3.03;;;1.52;;
33786;SDS011;29742;51.540;9.358;2022-10-16T18:23:05;2.30;;;1.08;;
33786;SDS011;29742;51.540;9.358;2022-10-16T18:28:06;5.50;;;1.05;;
33786;SDS011;29742;51.540;9.358;2022-10-16T18:33:07;3.85;;;1.27;;
33786;SDS011;29742;51.540;9.358;2022-10-16T18:38:08;3.83;;;1.30;;
33786;SDS011;29742;51.540;9.358;2022-10-16T18:43:09;3.67;;;1.20;;
33786;SDS011;29742;51.540;9.358;2022-10-16T18:48:10;4.38;;;1.73;;
33786;SDS011;29742;51.540;9.358;2022-10-16T18:53:11;3.25;;;1.52;;
33786;SDS011;29742;51.540;9.358;2022-10-16T18:58:12;3.17;;;1.65;;
33786;SDS011;29742;51.540;9.358;2022-10-16T19:03:13;5.45;;;1.42;;
33786;SDS011;29742;51.540;9.358;2022-10-16T19:08:14;2.47;;;1.27;;
33786;SDS011;29742;51.540;9.358;2022-10-16T19:13:15;2.33;;;1.10;;
33786;SDS011;29742;51.540;9.358;2022-10-16T19:18:16;2.95;;;1.60;;
33786;SDS011;29742;51.540;9.358;2022-10-16T19:23:17;2.22;;;1.30;;
33786;SDS011;29742;51.540;9.358;2022-10-16T19:28:18;2.40;;;1.55;;
33786;SDS011;29742;51.540;9.358;2022-10-16T19:33:18;2.63;;;1.33;;
33786;SDS011;29742;51.540;9.358;2022-10-16T19:38:19;2.70;;;1.52;;
33786;SDS011;29742;51.540;9.358;2022-10-16T19:43:21;2.42;;;1.40;;
33786;SDS011;29742;51.540;9.358;2022-10-16T19:48:22;5.97;;;2.20;;
33786;SDS011;29742;51.540;9.358;2022-10-16T19:53:24;3.78;;;1.58;;
33786;SDS011;29742;51.540;9.358;2022-10-16T19:58:27;3.38;;;1.58;;
33786;SDS011;29742;51.540;9.358;2022-10-16T20:03:28;1.98;;;1.20;;
33786;SDS011;29742;51.540;9.358;2022-10-16T20:08:29;2.17;;;1.20;;
33786;SDS011;29742;51.540;9.358;2022-10-16T20:13:30;1.75;;;1.02;;
33786;SDS011;29742;51.540;9.358;2022-10-16T20:18:31;4.32;;;1.48;;
33786;SDS011;29742;51.540;9.358;2022-10-16T20:23:32;1.77;;;1.27;;
33786;SDS011;29742;51.540;9.358;2022-10-16T20:28:33;3.03;;;1.50;;
33786;SDS011;29742;51.540;9.358;2022-10-16T20:33:34;12.35;;;1.60;;
33786;SDS011;29742;51.540;9.358;2022-10-16T20:38:35;5.47;;;1.80;;
33786;SDS011;29742;51.540;9.358;2022-10-16T20:43:40;2.83;;;1.45;;
33786;SDS011;29742;51.540;9.358;2022-10-16T20:48:42;3.42;;;1.40;;
33786;SDS011;29742;51.540;9.358;2022-10-16T20:53:44;2.95;;;1.20;;
33786;SDS011;29742;51.540;9.358;2022-10-16T20:58:45;2.45;;;1.20;;
33786;SDS011;29742;51.540;9.358;2022-10-16T21:04:06;2.17;;;1.20;;
33786;SDS011;29742;51.540;9.358;2022-10-16T21:09:07;2.75;;;1.30;;
33786;SDS011;29742;51.540;9.358;2022-10-16T21:14:09;1.75;;;1.15;;
33786;SDS011;29742;51.540;9.358;2022-10-16T21:19:10;2.88;;;1.30;;
33786;SDS011;29742;51.540;9.358;2022-10-16T21:24:10;3.00;;;1.23;;
33786;SDS011;29742;51.540;9.358;2022-10-16T21:29:12;1.67;;;1.00;;
33786;SDS011;29742;51.540;9.358;2022-10-16T21:34:13;1.35;;;0.90;;
33786;SDS011;29742;51.540;9.358;2022-10-16T21:39:15;2.33;;;1.10;;
33786;SDS011;29742;51.540;9.358;2022-10-16T21:44:17;2.70;;;0.80;;
33786;SDS011;29742;51.540;9.358;2022-10-16T21:49:19;3.42;;;1.30;;
33786;SDS011;29742;51.540;9.358;2022-10-16T21:54:21;2.03;;;1.20;;
33786;SDS011;29742;51.540;9.358;2022-10-16T21:59:22;1.38;;;1.10;;
33786;SDS011;29742;51.540;9.358;2022-10-16T22:04:23;1.45;;;1.00;;
33786;SDS011;29742;51.540;9.358;2022-10-16T22:09:24;2.35;;;1.00;;
33786;SDS011;29742;51.540;9.358;2022-10-16T22:14:25;1.27;;;0.95;;
33786;SDS011;29742;51.540;9.358;2022-10-16T22:19:26;3.42;;;0.90;;
33786;SDS011;29742;51.540;9.358;2022-10-16T22:24:27;1.10;;;0.70;;
33786;SDS011;29742;51.540;9.358;2022-10-16T22:29:28;0.90;;;0.82;;
33786;SDS011;29742;51.540;9.358;2022-10-16T22:34:28;0.95;;;0.73;;
33786;SDS011;29742;51.540;9.358;2022-10-16T22:39:29;1.48;;;1.10;;
33786;SDS011;29742;51.540;9.358;2022-10-16T22:44:30;3.05;;;0.90;;
33786;SDS011;29742;51.540;9.358;2022-10-16T22:49:31;1.90;;;1.00;;
33786;SDS011;29742;51.540;9.358;2022-10-16T22:54:32;1.17;;;0.90;;
33786;SDS011;29742;51.540;9.358;2022-10-16T22:59:33;2.10;;;0.80;;
33786;SDS011;29742;51.540;9.358;2022-10-16T23:04:34;1.92;;;1.00;;
33786;SDS011;29742;51.540;9.358;2022-10-16T23:09:35;2.38;;;1.30;;
33786;SDS011;29742;51.540;9.358;2022-10-16T23:14:36;0.90;;;0.70;;
33786;SDS011;29742;51.540;9.358;2022-10-16T23:19:37;1.55;;;0.80;;
33786;SDS011;29742;51.540;9.358;2022-10-16T23:24:38;0.63;;;0.52;;
33786;SDS011;29742;51.540;9.358;2022-10-16T23:29:39;1.30;;;0.70;;
33786;SDS011;29742;51.540;9.358;2022-10-16T23:34:40;1.27;;;0.90;;
33786;SDS011;29742;51.540;9.358;2022-10-16T23:39:41;0.98;;;0.80;;
33786;SDS011;29742;51.540;9.358;2022-10-16T23:44:42;1.10;;;0.70;;
33786;SDS011;29742;51.540;9.358;2022-10-16T23:49:43;1.65;;;0.70;;
33786;SDS011;29742;51.540;9.358;2022-10-16T23:54:44;1.38;;;0.65;;
33786;SDS011;29742;51.540;9.358;2022-10-16T23:59:44;2.95;;;1.30;;
